Time;durP1;ratioP1;P1;durP2;ratioP2;P2;SDS_P1;SDS_P2;PMS_P1;PMS_P2;Temp;Humidity;BMP_temperature;BMP_pressure;BME280_temperature;BME280_humidity;BME280_pressure;Samples;Min_cycle;Max_cycle;Signal;HPM_P1;HPM_P2
2022/10/04 00:00:36;;;;;;;9.18;7.28;;;12.90;99.90;;;;;;4994479;28;20274;-78
2022/10/04 00:03:11;;;;;;;7.47;6.78;;;12.80;99.90;;;;;;4995431;28;20179;-80
2022/10/04 00:05:40;;;;;;;11.52;7.25;;;12.80;99.90;;;;;;5010556;28;20215;-80
2022/10/04 00:08:31;;;;;;;8.15;7.10;;;12.80;99.90;;;;;;5010373;28;20169;-79
2022/10/04 00:11:19;;;;;;;18.70;6.45;;;12.80;99.90;;;;;;4995244;28;20185;-78
2022/10/04 00:13:53;;;;;;;9.70;7.40;;;12.70;99.90;;;;;;4995748;28;20566;-79
2022/10/04 00:16:34;;;;;;;10.45;7.07;;;12.70;99.90;;;;;;5010491;28;20164;-79
2022/10/04 00:19:41;;;;;;;10.93;7.03;;;12.50;99.90;;;;;;4995490;28;20169;-79
2022/10/04 00:22:07;;;;;;;14.43;7.60;;;12.60;99.90;;;;;;4994893;28;20192;-79
2022/10/04 00:24:34;;;;;;;10.25;7.43;;;12.60;99.90;;;;;;4993951;28;20188;-79
2022/10/04 00:27:19;;;;;;;8.15;7.15;;;12.50;99.90;;;;;;4995233;28;20694;-80
2022/10/04 00:30:03;;;;;;;15.63;7.50;;;12.50;99.90;;;;;;4995651;28;20622;-79
2022/10/04 00:32:38;;;;;;;13.70;7.20;;;12.60;99.90;;;;;;4994331;28;20215;-79
2022/10/04 00:35:23;;;;;;;11.35;7.78;;;12.50;99.90;;;;;;4995233;28;20173;-79
2022/10/04 00:38:07;;;;;;;10.88;6.30;;;12.40;99.90;;;;;;4994935;28;20177;-79
2022/10/04 00:40:38;;;;;;;12.18;6.78;;;12.30;99.90;;;;;;4994532;28;20232;-79
2022/10/04 00:43:27;;;;;;;10.27;7.40;;;12.30;99.90;;;;;;4994871;28;20635;-78
2022/10/04 00:46:09;;;;;;;24.02;7.38;;;12.40;99.90;;;;;;4993522;28;20216;-79
2022/10/04 00:48:44;;;;;;;22.08;7.72;;;12.40;99.90;;;;;;4994652;28;20169;-79
2022/10/04 00:51:36;;;;;;;11.52;7.85;;;12.50;99.90;;;;;;4994094;28;20189;-79
2022/10/04 00:54:06;;;;;;;13.98;8.27;;;12.40;99.90;;;;;;5009843;28;20203;-79
2022/10/04 00:56:31;;;;;;;11.88;7.82;;;12.30;99.90;;;;;;4994755;28;20178;-83
2022/10/04 00:59:03;;;;;;;12.00;7.53;;;12.20;99.90;;;;;;4993217;28;20227;-79
2022/10/04 01:01:34;;;;;;;16.98;7.60;;;12.00;99.90;;;;;;4994314;28;20243;-79
2022/10/04 01:04:02;;;;;;;18.23;7.50;;;12.00;99.90;;;;;;4994680;28;20212;-79
2022/10/04 01:06:28;;;;;;;7.90;6.97;;;12.10;99.90;;;;;;4994291;28;20262;-79
2022/10/04 01:09:00;;;;;;;9.40;6.55;;;12.00;99.90;;;;;;4994329;28;20693;-80
2022/10/04 01:11:46;;;;;;;13.52;7.40;;;12.10;99.90;;;;;;4994014;28;20651;-84
2022/10/04 01:14:46;;;;;;;13.57;7.43;;;12.20;99.90;;;;;;4994438;28;20177;-82
2022/10/04 01:17:12;;;;;;;12.23;8.48;;;12.10;99.90;;;;;;4993699;28;20678;-80
2022/10/04 01:19:40;;;;;;;12.65;7.45;;;12.00;99.90;;;;;;4993912;28;20165;-78
2022/10/04 01:22:36;;;;;;;17.38;7.55;;;12.00;99.90;;;;;;4994095;28;20553;-81
2022/10/04 01:25:02;;;;;;;11.38;6.88;;;12.10;99.90;;;;;;4993535;28;20207;-88
2022/10/04 01:27:39;;;;;;;12.30;7.82;;;12.10;99.90;;;;;;4994015;28;20178;-81
2022/10/04 01:30:14;;;;;;;11.13;7.40;;;11.90;99.90;;;;;;4993743;28;20179;-78
2022/10/04 01:32:40;;;;;;;16.90;7.45;;;11.90;99.90;;;;;;4994063;28;20175;-79
2022/10/04 01:35:12;;;;;;;10.75;6.35;;;12.10;99.90;;;;;;4993844;28;20601;-80
2022/10/04 01:37:38;;;;;;;9.35;6.90;;;12.10;99.90;;;;;;4993840;28;20248;-89
2022/10/04 01:40:06;;;;;;;15.55;7.55;;;12.00;99.90;;;;;;5008806;28;20611;-78
2022/10/04 01:42:41;;;;;;;11.82;7.60;;;11.90;99.90;;;;;;4993649;28;20244;-82
2022/10/04 01:45:13;;;;;;;7.78;7.00;;;11.90;99.90;;;;;;4993616;28;20260;-79
2022/10/04 01:47:59;;;;;;;8.15;7.22;;;11.70;99.90;;;;;;4992253;28;20582;-81
2022/10/04 01:50:34;;;;;;;8.88;7.57;;;11.80;99.90;;;;;;4993306;28;20170;-81
2022/10/04 01:53:20;;;;;;;12.25;8.52;;;11.90;99.90;;;;;;4993250;28;20169;-78
2022/10/04 01:55:53;;;;;;;7.30;6.63;;;11.80;99.90;;;;;;4993460;28;20167;-79
2022/10/04 01:58:31;;;;;;;8.68;6.90;;;11.80;99.90;;;;;;4993521;28;20230;-82
2022/10/04 02:01:10;;;;;;;12.73;7.82;;;11.80;99.90;;;;;;4993322;28;20191;-78
2022/10/04 02:03:40;;;;;;;7.88;6.82;;;12.00;99.90;;;;;;4992532;28;20192;-80
2022/10/04 02:06:09;;;;;;;15.88;7.85;;;12.00;99.90;;;;;;4993277;28;20209;-79
2022/10/04 02:08:38;;;;;;;10.75;7.88;;;12.00;99.90;;;;;;4993289;28;20166;-88
2022/10/04 02:11:04;;;;;;;13.52;7.88;;;12.00;99.90;;;;;;4993087;28;20189;-80
2022/10/04 02:13:37;;;;;;;11.15;7.38;;;11.90;99.90;;;;;;4993384;28;20227;-80
2022/10/04 02:16:07;;;;;;;10.35;7.72;;;11.90;99.90;;;;;;4993038;28;20265;-82
2022/10/04 02:18:36;;;;;;;16.98;7.88;;;11.90;99.90;;;;;;4993529;28;20189;-79
2022/10/04 02:21:04;;;;;;;9.40;7.18;;;11.70;99.90;;;;;;4993141;28;20197;-78
2022/10/04 02:23:31;;;;;;;8.27;7.47;;;11.70;99.90;;;;;;4992998;28;20188;-79
2022/10/04 02:25:57;;;;;;;10.88;7.65;;;11.60;99.90;;;;;;4993149;28;20208;-83
2022/10/04 02:28:24;;;;;;;15.80;8.05;;;11.40;99.90;;;;;;4993297;28;20223;-79
2022/10/04 02:33:42;;;;;;;10.93;7.85;;;11.50;99.90;;;;;;4993035;28;20236;-82
2022/10/04 02:36:08;;;;;;;11.60;8.02;;;11.40;99.90;;;;;;4992868;28;20228;-79
2022/10/04 02:38:40;;;;;;;10.38;7.95;;;11.40;99.90;;;;;;4993024;28;20196;-79
2022/10/04 02:41:34;;;;;;;11.88;7.85;;;11.40;99.90;;;;;;4992902;28;20223;-79
2022/10/04 02:44:17;;;;;;;11.35;8.25;;;11.50;99.90;;;;;;4993114;28;20848;-79
2022/10/04 02:47:01;;;;;;;13.25;7.85;;;11.50;99.90;;;;;;4991408;28;20244;-78
2022/10/04 02:49:26;;;;;;;9.70;7.18;;;11.50;99.90;;;;;;4992659;28;20627;-78
2022/10/04 02:52:03;;;;;;;11.38;8.15;;;11.50;99.90;;;;;;4992901;28;20273;-78
2022/10/04 02:54:38;;;;;;;12.07;8.30;;;11.50;99.90;;;;;;4993208;28;20204;-81
2022/10/04 02:57:04;;;;;;;17.10;7.50;;;11.50;99.90;;;;;;4992910;28;20227;-78
2022/10/04 02:59:30;;;;;;;9.65;7.95;;;11.50;99.90;;;;;;4993023;28;20612;-79
2022/10/04 03:01:59;;;;;;;22.52;9.35;;;11.50;99.90;;;;;;4992846;28;20207;-81
2022/10/04 03:04:32;;;;;;;15.18;8.27;;;11.50;99.90;;;;;;4993153;28;20627;-78
2022/10/04 03:07:03;;;;;;;9.15;8.05;;;11.50;99.90;;;;;;4992890;28;20659;-79
2022/10/04 03:09:28;;;;;;;17.95;8.23;;;11.50;99.90;;;;;;4993140;28;20530;-79
2022/10/04 03:11:55;;;;;;;9.00;8.13;;;11.50;99.90;;;;;;4992685;28;20276;-79
2022/10/04 03:14:23;;;;;;;14.20;7.90;;;11.40;99.90;;;;;;4994636;28;20541;-79
2022/10/04 03:16:54;;;;;;;15.27;8.50;;;11.50;99.90;;;;;;4996502;28;20170;-79
2022/10/04 03:19:25;;;;;;;13.50;8.27;;;11.40;99.90;;;;;;4996438;28;20252;-82
2022/10/04 03:21:54;;;;;;;14.10;8.35;;;11.40;99.90;;;;;;4996426;28;20251;-80
2022/10/04 03:24:31;;;;;;;9.68;7.57;;;11.40;99.90;;;;;;4995883;28;20185;-81
2022/10/04 03:27:00;;;;;;;9.93;7.40;;;11.30;99.90;;;;;;4996045;28;20215;-79
2022/10/04 03:29:30;;;;;;;25.98;8.35;;;11.30;99.90;;;;;;4996452;28;20200;-78
2022/10/04 03:31:57;;;;;;;13.07;8.52;;;11.30;99.90;;;;;;4996417;28;20220;-78
2022/10/04 03:34:52;;;;;;;10.35;8.90;;;11.30;99.90;;;;;;4996325;28;20165;-78
2022/10/04 03:37:20;;;;;;;13.30;8.38;;;11.20;99.90;;;;;;4991631;28;20231;-79
2022/10/04 03:39:49;;;;;;;14.48;8.35;;;11.20;99.90;;;;;;4996969;28;20162;-78
2022/10/04 03:42:16;;;;;;;16.83;7.53;;;11.20;99.90;;;;;;5012624;28;20201;-78
2022/10/04 03:44:46;;;;;;;17.35;9.35;;;11.30;99.90;;;;;;4998179;28;20165;-79
2022/10/04 03:47:16;;;;;;;9.23;8.32;;;11.30;99.90;;;;;;4997755;28;20296;-79
2022/10/04 03:49:43;;;;;;;13.93;7.82;;;11.40;99.90;;;;;;4998744;28;20177;-79
2022/10/04 03:52:20;;;;;;;18.40;8.48;;;11.40;99.90;;;;;;4998091;28;20193;-78
2022/10/04 03:54:47;;;;;;;14.10;7.72;;;11.40;99.90;;;;;;4998477;28;20631;-78
2022/10/04 03:57:13;;;;;;;18.95;9.07;;;11.50;99.90;;;;;;4998217;28;20165;-79
2022/10/04 03:59:39;;;;;;;13.45;8.35;;;11.60;99.90;;;;;;4998917;28;20176;-78
2022/10/04 04:02:14;;;;;;;8.27;7.35;;;11.60;99.90;;;;;;5006627;28;20185;-78
2022/10/04 04:05:06;;;;;;;8.77;7.72;;;11.60;99.90;;;;;;5018629;28;20168;-78
2022/10/04 04:07:51;;;;;;;10.77;9.02;;;11.60;99.90;;;;;;5003657;28;20188;-78
2022/10/04 04:10:26;;;;;;;11.80;7.90;;;11.60;99.90;;;;;;5018668;28;20173;-78
2022/10/04 04:13:11;;;;;;;16.13;7.82;;;11.60;99.90;;;;;;5018529;28;20164;-78
2022/10/04 04:15:42;;;;;;;19.08;8.57;;;11.60;99.90;;;;;;5017169;28;20165;-77
2022/10/04 04:18:17;;;;;;;16.05;8.25;;;11.70;99.90;;;;;;5020076;28;20154;-77
2022/10/04 04:20:44;;;;;;;13.73;7.78;;;11.60;99.90;;;;;;5019812;28;20184;-78
2022/10/04 04:23:12;;;;;;;13.88;8.45;;;11.60;99.90;;;;;;5014936;28;20257;-79
2022/10/04 04:25:50;;;;;;;9.65;7.82;;;11.60;99.90;;;;;;5013257;28;20197;-77
2022/10/04 04:28:41;;;;;;;15.68;8.65;;;11.60;99.90;;;;;;5007895;28;20165;-79
2022/10/04 04:31:19;;;;;;;10.48;7.20;;;11.60;99.90;;;;;;5008865;28;20209;-78
2022/10/04 04:33:59;;;;;;;7.68;6.95;;;11.60;99.90;;;;;;5022594;28;20162;-79
2022/10/04 04:36:26;;;;;;;17.83;8.20;;;11.70;99.90;;;;;;5010309;28;20177;-78
2022/10/04 04:41:36;;;;;;;12.55;7.72;;;11.70;99.90;;;;;;5013413;28;20227;-78
2022/10/04 04:44:02;;;;;;;11.75;8.00;;;11.60;99.90;;;;;;5003755;28;20197;-81
2022/10/04 04:46:29;;;;;;;15.48;8.93;;;11.60;99.90;;;;;;4997388;28;20204;-78
2022/10/04 04:49:01;;;;;;;20.83;7.88;;;11.50;99.90;;;;;;4995397;28;20161;-78
2022/10/04 04:51:28;;;;;;;12.57;7.13;;;11.60;99.90;;;;;;4995009;28;20196;-78
2022/10/04 04:53:55;;;;;;;15.80;8.45;;;11.40;99.90;;;;;;4995283;28;20201;-80
2022/10/04 04:56:26;;;;;;;12.07;7.63;;;11.40;99.90;;;;;;4995005;28;20248;-79
2022/10/04 04:58:55;;;;;;;14.38;8.32;;;11.40;99.90;;;;;;4995213;28;20169;-78
2022/10/04 05:01:34;;;;;;;15.38;8.63;;;11.40;99.90;;;;;;4994724;28;20177;-79
2022/10/04 05:04:08;;;;;;;11.68;8.55;;;11.40;99.90;;;;;;4993285;28;20642;-77
2022/10/04 05:06:36;;;;;;;26.88;8.88;;;11.30;99.90;;;;;;4993999;28;20735;-78
2022/10/04 05:09:04;;;;;;;26.70;8.90;;;11.30;99.90;;;;;;4994020;28;20173;-77
2022/10/04 05:11:33;;;;;;;10.35;8.48;;;11.40;99.90;;;;;;4993695;28;20276;-77
2022/10/04 05:14:04;;;;;;;14.93;9.70;;;11.50;99.90;;;;;;4993997;28;20193;-77
2022/10/04 05:16:45;;;;;;;12.57;9.00;;;11.50;99.90;;;;;;4997614;28;20224;-77
2022/10/04 05:19:27;;;;;;;14.15;7.72;;;11.40;99.90;;;;;;4994021;28;20179;-77
2022/10/04 05:21:55;;;;;;;16.25;8.43;;;11.40;99.90;;;;;;4992723;28;21189;-77
2022/10/04 05:24:25;;;;;;;27.67;8.70;;;11.40;99.90;;;;;;4993891;28;20327;-78
2022/10/04 05:26:59;;;;;;;24.35;10.02;;;11.40;99.90;;;;;;4994205;28;20275;-78
2022/10/04 05:29:30;;;;;;;14.65;9.25;;;11.50;99.90;;;;;;4993771;28;20195;-78
2022/10/04 05:32:34;;;;;;;11.52;8.13;;;11.50;99.90;;;;;;4993875;28;20614;-79
2022/10/04 05:35:00;;;;;;;20.58;8.70;;;11.50;99.90;;;;;;4993880;28;20552;-77
2022/10/04 05:38:04;;;;;;;17.73;8.30;;;11.60;99.90;;;;;;4993434;28;20679;-77
2022/10/04 05:40:55;;;;;;;14.45;8.85;;;11.60;99.90;;;;;;4993202;28;20189;-78
2022/10/04 05:43:48;;;;;;;19.13;8.38;;;11.70;99.90;;;;;;4993411;28;20173;-77
2022/10/04 05:46:23;;;;;;;12.95;8.60;;;11.60;99.90;;;;;;4993402;28;20200;-77
2022/10/04 05:49:05;;;;;;;11.82;8.70;;;11.60;99.90;;;;;;4993425;28;20533;-78
2022/10/04 05:51:37;;;;;;;16.60;10.35;;;11.70;99.90;;;;;;4993299;28;20193;-83
2022/10/04 05:54:03;;;;;;;17.83;8.20;;;11.70;99.90;;;;;;4993740;28;20176;-80
2022/10/04 05:56:36;;;;;;;12.85;9.02;;;11.70;99.90;;;;;;4992792;28;20623;-80
2022/10/04 05:59:20;;;;;;;7.68;6.90;;;11.60;99.90;;;;;;4993660;28;20287;-80
2022/10/04 06:02:08;;;;;;;14.65;7.72;;;11.60;99.90;;;;;;4993243;28;20693;-79
2022/10/04 06:04:55;;;;;;;17.00;7.78;;;11.60;99.90;;;;;;4992050;28;20169;-80
2022/10/04 06:07:35;;;;;;;13.43;8.45;;;11.50;99.90;;;;;;4993168;28;20272;-83
2022/10/04 06:10:16;;;;;;;15.18;8.50;;;11.60;99.90;;;;;;4993537;28;20227;-84
2022/10/04 06:13:00;;;;;;;11.35;8.38;;;11.60;99.90;;;;;;4993121;28;20176;-80
2022/10/04 06:16:03;;;;;;;18.35;8.73;;;11.60;99.90;;;;;;4993407;28;20247;-79
2022/10/04 06:18:40;;;;;;;16.27;8.20;;;11.60;99.90;;;;;;4992926;28;20171;-80
2022/10/04 06:21:16;;;;;;;12.45;8.30;;;11.60;99.90;;;;;;4993075;28;20196;-84
2022/10/04 06:23:54;;;;;;;12.98;8.15;;;11.60;99.90;;;;;;4993437;28;20188;-80
2022/10/04 06:26:24;;;;;;;18.02;8.90;;;11.60;99.90;;;;;;4993223;28;20223;-79
2022/10/04 06:29:05;;;;;;;23.75;8.82;;;11.70;99.90;;;;;;4991755;28;20505;-85
2022/10/04 06:32:02;;;;;;;18.00;8.57;;;11.70;99.90;;;;;;4992892;28;20188;-79
2022/10/04 06:34:53;;;;;;;16.63;8.27;;;11.70;99.90;;;;;;4989805;28;20282;-79
2022/10/04 06:38:14;;;;;;;16.83;8.82;;;11.70;99.90;;;;;;4992812;28;20654;-87
2022/10/04 06:41:19;;;;;;;16.98;8.57;;;11.80;99.90;;;;;;4992830;28;20189;-81
2022/10/04 06:44:03;;;;;;;19.33;8.55;;;12.00;99.90;;;;;;4974134;28;20200;-79
2022/10/04 06:46:36;;;;;;;12.60;8.38;;;12.00;99.90;;;;;;4992868;28;20204;-81
2022/10/04 06:49:30;;;;;;;23.85;8.60;;;11.90;99.90;;;;;;4994980;28;20168;-83
2022/10/04 06:52:24;;;;;;;32.67;9.40;;;12.00;99.90;;;;;;4996931;28;20193;-82
2022/10/04 06:55:14;;;;;;;15.52;8.43;;;12.10;99.90;;;;;;4997361;28;20169;-82
2022/10/04 06:57:42;;;;;;;15.68;9.23;;;12.10;99.90;;;;;;4997357;28;20196;-85
2022/10/04 07:00:25;;;;;;;16.65;8.68;;;12.20;99.90;;;;;;4997120;28;20587;-78
2022/10/04 07:03:03;;;;;;;12.85;8.43;;;12.30;99.90;;;;;;4996870;28;20169;-78
2022/10/04 07:05:49;;;;;;;19.45;9.23;;;12.10;99.90;;;;;;4996866;28;20251;-79
2022/10/04 07:08:32;;;;;;;15.55;8.48;;;12.10;99.90;;;;;;4997350;28;20650;-84
2022/10/04 07:11:21;;;;;;;13.98;7.97;;;12.10;99.90;;;;;;4996607;28;20193;-78
2022/10/04 07:14:01;;;;;;;23.08;9.23;;;12.00;99.90;;;;;;4976756;28;20221;-78
2022/10/04 07:16:49;;;;;;;18.05;8.05;;;12.00;99.90;;;;;;4978382;28;20759;-79
2022/10/04 07:19:18;;;;;;;16.83;8.27;;;12.10;99.90;;;;;;4979009;28;20172;-84
2022/10/04 07:22:04;;;;;;;18.00;8.85;;;12.20;99.90;;;;;;4995375;28;20205;-77
2022/10/04 07:24:50;;;;;;;13.23;7.07;;;12.30;99.90;;;;;;4993854;28;20648;-77
2022/10/04 07:27:33;;;;;;;18.05;7.10;;;12.50;99.90;;;;;;4993676;28;20224;-78
2022/10/04 07:30:05;;;;;;;15.32;7.35;;;12.60;99.90;;;;;;4994050;28;20180;-78
2022/10/04 07:32:35;;;;;;;17.42;6.75;;;12.50;99.90;;;;;;4995515;28;20327;-77
2022/10/04 07:35:12;;;;;;;14.55;7.38;;;12.60;99.90;;;;;;4994817;28;20503;-80
2022/10/04 07:38:03;;;;;;;12.00;6.43;;;12.90;99.90;;;;;;4995043;28;20636;-78
2022/10/04 07:40:37;;;;;;;9.50;7.40;;;12.90;99.90;;;;;;4995566;28;20189;-78
2022/10/04 07:43:13;;;;;;;10.57;6.47;;;12.90;99.90;;;;;;4996432;28;20172;-84
2022/10/04 07:45:40;;;;;;;11.98;6.70;;;13.00;99.90;;;;;;5005261;28;20259;-80
2022/10/04 07:48:15;;;;;;;13.35;6.28;;;13.00;99.90;;;;;;5014503;28;20168;-83
2022/10/04 07:50:44;;;;;;;11.85;5.65;;;13.00;99.90;;;;;;5015314;28;20200;-77
2022/10/04 07:53:23;;;;;;;11.60;6.80;;;13.20;99.90;;;;;;4996276;28;20172;-90
2022/10/04 07:55:59;;;;;;;13.85;7.03;;;13.40;99.90;;;;;;4995725;28;20589;-79
2022/10/04 07:59:03;;;;;;;10.52;6.25;;;13.50;99.90;;;;;;4994544;28;20304;-78
2022/10/04 08:01:56;;;;;;;8.20;5.72;;;13.60;99.90;;;;;;4993404;28;20192;-79
2022/10/04 08:04:29;;;;;;;8.40;5.25;;;13.80;99.90;;;;;;4994914;28;20174;-78
2022/10/04 08:07:02;;;;;;;12.48;5.53;;;13.90;99.90;;;;;;4994511;28;20240;-78
2022/10/04 08:10:12;;;;;;;15.02;5.20;;;13.60;99.90;;;;;;4993980;28;20181;-79
2022/10/04 08:12:57;;;;;;;14.80;6.47;;;13.50;99.90;;;;;;4957915;28;20201;-78
2022/10/04 08:15:31;;;;;;;8.40;5.05;;;13.70;99.90;;;;;;4995171;28;20534;-78
2022/10/04 08:18:09;;;;;;;6.93;5.53;;;13.90;99.90;;;;;;4994323;28;20177;-78
2022/10/04 08:20:49;;;;;;;7.60;5.05;;;14.00;99.90;;;;;;4992159;28;20196;-79
2022/10/04 08:23:23;;;;;;;11.40;5.78;;;13.80;99.90;;;;;;4994818;28;20173;-78
2022/10/04 08:26:07;;;;;;;8.77;5.88;;;13.70;99.90;;;;;;4992432;28;20314;-78
2022/10/04 08:31:51;;;;;;;11.90;5.60;;;14.00;99.90;;;;;;4988509;28;20212;-82
2022/10/04 08:34:41;;;;;;;9.95;4.72;;;14.10;99.90;;;;;;4992850;28;20635;-79
2022/10/04 08:37:34;;;;;;;10.57;5.65;;;14.10;99.90;;;;;;4993214;28;20169;-78
2022/10/04 08:40:50;;;;;;;23.52;6.57;;;14.20;99.90;;;;;;4994778;28;20169;-86
2022/10/04 08:43:36;;;;;;;10.43;5.60;;;14.30;99.90;;;;;;4994532;28;20172;-78
2022/10/04 08:46:46;;;;;;;10.63;5.70;;;14.40;99.90;;;;;;4995789;28;20217;-80
2022/10/04 08:49:38;;;;;;;9.55;6.07;;;14.50;99.90;;;;;;4970376;28;20251;-77
2022/10/04 08:52:35;;;;;;;13.38;5.65;;;14.50;99.90;;;;;;4997782;28;20658;-78
2022/10/04 08:55:33;;;;;;;11.98;5.78;;;14.80;99.90;;;;;;4995124;28;20641;-77
2022/10/04 08:58:18;;;;;;;8.95;5.78;;;14.90;99.90;;;;;;4999751;28;20168;-81
2022/10/04 09:00:57;;;;;;;7.80;5.07;;;14.90;99.90;;;;;;4997826;28;20209;-80
2022/10/04 09:03:41;;;;;;;10.68;5.95;;;15.10;99.90;;;;;;4998575;28;20259;-78
2022/10/04 09:06:41;;;;;;;14.88;5.20;;;15.40;99.90;;;;;;4998163;28;20204;-78
2022/10/04 09:09:25;;;;;;;9.07;5.10;;;15.40;99.90;;;;;;4996827;28;20264;-81
2022/10/04 09:12:17;;;;;;;9.75;5.78;;;15.40;99.90;;;;;;4992432;28;20690;-78
2022/10/04 09:15:24;;;;;;;9.57;5.50;;;15.60;99.90;;;;;;4992993;28;20193;-78
2022/10/04 09:18:12;;;;;;;7.25;5.30;;;15.70;99.90;;;;;;4994569;28;20169;-78
2022/10/04 09:20:46;;;;;;;8.70;5.65;;;15.60;99.90;;;;;;4994192;28;20185;-78
2022/10/04 09:23:15;;;;;;;6.25;4.75;;;15.70;99.90;;;;;;4994948;28;20168;-78
2022/10/04 09:25:58;;;;;;;12.68;4.68;;;15.70;99.90;;;;;;4994555;28;20189;-78
2022/10/04 09:28:42;;;;;;;6.18;5.57;;;15.90;99.90;;;;;;4994784;28;20177;-78
2022/10/04 09:31:28;;;;;;;8.23;5.35;;;15.80;99.90;;;;;;4991968;28;20193;-78
2022/10/04 09:34:12;;;;;;;15.73;5.82;;;15.80;99.90;;;;;;4994275;28;20189;-78
2022/10/04 09:36:57;;;;;;;11.25;4.95;;;15.80;99.90;;;;;;4994215;28;20165;-78
2022/10/04 09:39:43;;;;;;;10.63;5.15;;;16.00;99.90;;;;;;4992340;28;20205;-78
2022/10/04 09:42:17;;;;;;;5.70;4.20;;;16.00;99.90;;;;;;4993242;28;20193;-79
2022/10/04 09:45:09;;;;;;;5.93;5.28;;;15.90;99.90;;;;;;4993390;28;20173;-78
2022/10/04 09:47:40;;;;;;;9.02;4.75;;;15.90;99.90;;;;;;4993873;28;20209;-81
2022/10/04 09:50:44;;;;;;;8.02;4.85;;;16.00;99.90;;;;;;4993652;28;20169;-84
2022/10/04 09:53:48;;;;;;;11.35;4.72;;;16.10;99.90;;;;;;4993524;28;20162;-79
2022/10/04 09:57:00;;;;;;;9.50;4.80;;;16.10;99.90;;;;;;4987439;28;20181;-79
2022/10/04 09:59:36;;;;;;;10.77;4.80;;;16.20;99.90;;;;;;4971513;28;20273;-78
2022/10/04 10:02:27;;;;;;;9.52;4.30;;;16.20;99.90;;;;;;4993612;28;20195;-78
2022/10/04 10:05:26;;;;;;;9.30;4.53;;;16.30;99.90;;;;;;4996426;28;20515;-78
2022/10/04 10:07:58;;;;;;;13.05;4.82;;;16.30;99.90;;;;;;4992442;28;20247;-79
2022/10/04 10:14:01;;;;;;;7.55;3.65;;;16.30;99.90;;;;;;4993604;28;20199;-79
2022/10/04 10:16:48;;;;;;;9.93;4.38;;;16.50;99.90;;;;;;4991999;28;20173;-79
2022/10/04 10:19:55;;;;;;;9.30;4.82;;;16.60;99.90;;;;;;4993226;28;20655;-80
2022/10/04 10:22:36;;;;;;;5.65;3.85;;;16.60;99.90;;;;;;4953615;28;20287;-79
2022/10/04 10:25:20;;;;;;;11.52;4.72;;;16.70;99.90;;;;;;4992596;28;20701;-78
2022/10/04 10:27:58;;;;;;;9.63;4.80;;;16.80;99.90;;;;;;4993271;28;20220;-78
2022/10/04 10:30:51;;;;;;;9.40;4.30;;;16.90;99.90;;;;;;4992930;28;20185;-78
2022/10/04 10:33:54;;;;;;;8.27;4.47;;;17.00;99.90;;;;;;4993212;28;20184;-79
2022/10/04 10:36:48;;;;;;;9.05;4.28;;;17.30;99.90;;;;;;4993313;28;20169;-79
2022/10/04 10:39:32;;;;;;;5.78;4.07;;;17.30;99.90;;;;;;4975703;28;20312;-81
2022/10/04 10:42:28;;;;;;;7.32;4.20;;;17.20;99.90;;;;;;4994096;28;20617;-79
2022/10/04 10:45:16;;;;;;;7.80;3.97;;;17.10;99.90;;;;;;4993473;28;20683;-79
2022/10/04 10:47:54;;;;;;;6.25;4.50;;;17.10;99.90;;;;;;4993155;28;20280;-79
2022/10/04 10:50:29;;;;;;;7.90;4.22;;;17.00;99.90;;;;;;4993293;28;20244;-83
2022/10/04 10:53:32;;;;;;;4.28;3.42;;;17.20;99.90;;;;;;4993578;28;20255;-78
2022/10/04 10:56:29;;;;;;;4.57;3.38;;;17.10;99.90;;;;;;4992476;28;20623;-79
2022/10/04 10:58:58;;;;;;;10.63;4.00;;;17.20;99.90;;;;;;4995305;28;20161;-80
2022/10/04 11:01:48;;;;;;;8.20;4.15;;;17.30;99.90;;;;;;4995474;28;20197;-79
2022/10/04 11:04:34;;;;;;;10.02;3.80;;;17.20;99.90;;;;;;4995526;28;20169;-79
2022/10/04 11:07:40;;;;;;;4.28;3.08;;;17.40;99.90;;;;;;4995367;28;21007;-78
2022/10/04 11:10:45;;;;;;;10.23;4.03;;;17.30;99.90;;;;;;4993623;28;20611;-78
2022/10/04 11:13:25;;;;;;;3.60;3.30;;;17.50;99.90;;;;;;4994409;28;20180;-79
2022/10/04 11:16:28;;;;;;;6.10;4.55;;;17.60;99.90;;;;;;4994174;28;20658;-78
2022/10/04 11:19:22;;;;;;;7.13;3.83;;;17.70;99.90;;;;;;4994097;28;20666;-79
2022/10/04 11:22:16;;;;;;;4.15;3.75;;;17.80;99.90;;;;;;4992168;28;20189;-78
2022/10/04 11:24:51;;;;;;;6.32;3.80;;;17.80;99.90;;;;;;4992509;28;20228;-78
2022/10/04 11:27:45;;;;;;;4.97;3.92;;;17.80;99.90;;;;;;4992397;28;20667;-81
2022/10/04 11:30:38;;;;;;;14.20;4.28;;;17.70;99.90;;;;;;4985054;28;20196;-77
2022/10/04 11:33:41;;;;;;;9.43;4.28;;;17.50;99.90;;;;;;4993729;28;20164;-80
2022/10/04 11:36:38;;;;;;;6.70;3.75;;;17.40;99.90;;;;;;4995916;28;20169;-80
2022/10/04 11:39:12;;;;;;;5.90;3.13;;;17.50;99.90;;;;;;4996343;28;20308;-81
2022/10/04 11:41:54;;;;;;;4.13;2.72;;;17.70;99.90;;;;;;4996097;28;20185;-80
2022/10/04 11:44:42;;;;;;;12.90;3.15;;;17.70;99.90;;;;;;4996669;28;20623;-79
2022/10/04 11:47:20;;;;;;;9.63;3.55;;;17.80;99.90;;;;;;4996396;28;20247;-79
2022/10/04 11:50:07;;;;;;;8.07;4.32;;;18.00;99.90;;;;;;4994861;28;20630;-79
2022/10/04 11:52:45;;;;;;;6.35;3.25;;;18.10;99.90;;;;;;4996116;28;20161;-79
2022/10/04 11:55:34;;;;;;;7.47;3.42;;;18.30;99.90;;;;;;4995939;28;20172;-82
2022/10/04 11:58:32;;;;;;;7.07;3.30;;;18.20;99.90;;;;;;4998007;28;20161;-83
2022/10/04 12:01:32;;;;;;;11.32;3.90;;;18.10;99.90;;;;;;4974585;28;20205;-80
2022/10/04 12:04:16;;;;;;;4.43;3.42;;;18.10;99.90;;;;;;4994169;28;20169;-80
2022/10/04 12:07:27;;;;;;;3.83;3.33;;;18.20;99.90;;;;;;4995587;28;20575;-79
2022/10/04 12:10:02;;;;;;;4.00;3.60;;;18.30;99.90;;;;;;4995513;28;20611;-79
2022/10/04 12:12:36;;;;;;;7.95;2.85;;;18.30;99.90;;;;;;4995125;28;20271;-79
2022/10/04 12:15:29;;;;;;;9.25;3.63;;;18.30;99.90;;;;;;4995230;28;20174;-79
2022/10/04 12:17:57;;;;;;;5.35;3.20;;;18.30;99.90;;;;;;4995477;28;20256;-79
2022/10/04 12:20:51;;;;;;;4.28;2.88;;;18.30;99.90;;;;;;4993900;28;20177;-79
2022/10/04 12:23:55;;;;;;;5.90;2.78;;;18.30;99.90;;;;;;4972176;28;20204;-79
2022/10/04 12:26:45;;;;;;;7.65;3.58;;;18.40;99.90;;;;;;4994906;28;20251;-77
2022/10/04 12:29:16;;;;;;;3.60;2.92;;;18.40;99.90;;;;;;4995270;28;20173;-79
2022/10/04 12:31:55;;;;;;;6.80;2.60;;;18.40;99.90;;;;;;4994015;28;20197;-78
2022/10/04 12:34:31;;;;;;;6.15;3.28;;;18.40;99.90;;;;;;4995274;28;20183;-77
2022/10/04 12:37:24;;;;;;;2.63;2.42;;;18.30;99.90;;;;;;4994225;28;20165;-78
2022/10/04 12:40:22;;;;;;;2.90;2.60;;;18.30;99.90;;;;;;4993661;28;20200;-78
2022/10/04 12:43:05;;;;;;;5.90;2.92;;;18.20;99.90;;;;;;4994805;28;20169;-82
2022/10/04 12:45:34;;;;;;;2.92;2.63;;;18.20;99.90;;;;;;4994606;28;20185;-78
2022/10/04 12:48:21;;;;;;;5.95;2.42;;;18.10;99.90;;;;;;4994269;28;20184;-81
2022/10/04 12:51:08;;;;;;;8.00;2.88;;;18.20;99.90;;;;;;4994030;28;20193;-78
2022/10/04 12:53:45;;;;;;;4.90;2.92;;;18.30;99.90;;;;;;4994273;28;20200;-78
2022/10/04 12:56:30;;;;;;;4.80;2.78;;;18.30;99.90;;;;;;4994439;28;20177;-79
2022/10/04 12:59:26;;;;;;;5.90;3.28;;;18.50;99.90;;;;;;4994036;28;20169;-79
2022/10/04 13:01:57;;;;;;;5.30;2.88;;;18.50;99.90;;;;;;4994216;28;20185;-79
2022/10/04 13:04:34;;;;;;;5.85;3.10;;;18.60;99.90;;;;;;4994226;28;20226;-79
2022/10/04 13:07:45;;;;;;;4.50;2.65;;;18.70;99.90;;;;;;4994141;28;20212;-78
2022/10/04 13:10:34;;;;;;;4.80;2.83;;;18.60;99.90;;;;;;4985347;28;20193;-79
2022/10/04 13:13:25;;;;;;;5.88;2.83;;;18.60;99.90;;;;;;4994230;28;20200;-79
2022/10/04 13:16:07;;;;;;;5.70;2.72;;;18.40;99.90;;;;;;4994574;28;20169;-80
2022/10/04 13:19:06;;;;;;;4.30;2.45;;;18.40;99.90;;;;;;4993857;28;20527;-79
2022/10/04 13:21:38;;;;;;;10.00;3.25;;;18.40;99.90;;;;;;4993896;28;20189;-79
2022/10/04 13:24:17;;;;;;;10.40;3.05;;;18.50;99.90;;;;;;4993518;28;20612;-78
2022/10/04 13:26:59;;;;;;;4.65;2.78;;;18.60;99.90;;;;;;4992201;28;20223;-78
2022/10/04 13:29:43;;;;;;;2.75;1.77;;;18.50;99.90;;;;;;4992769;28;20256;-78
2022/10/04 13:32:21;;;;;;;9.30;1.95;;;18.60;99.90;;;;;;4993772;28;20195;-81
2022/10/04 13:35:16;;;;;;;1.58;1.48;;;18.60;99.90;;;;;;4992514;28;20259;-79
2022/10/04 13:38:00;;;;;;;6.97;2.03;;;18.80;99.90;;;;;;4992055;28;20226;-78
2022/10/04 13:40:38;;;;;;;7.47;2.53;;;18.90;99.90;;;;;;4993397;28;20207;-79
2022/10/04 13:43:41;;;;;;;5.55;2.13;;;18.80;99.90;;;;;;4992223;28;20237;-78
2022/10/04 13:46:09;;;;;;;6.53;2.20;;;18.90;99.90;;;;;;4993697;28;20208;-78
2022/10/04 13:48:50;;;;;;;3.13;1.77;;;19.00;99.90;;;;;;4993380;28;20196;-78
2022/10/04 13:57:56;;;;;;;2.85;1.77;;;18.90;99.90;;;;;;4993324;28;20577;-79
2022/10/04 14:00:36;;;;;;;6.47;1.88;;;18.90;99.90;;;;;;4992826;28;20169;-78
2022/10/04 14:03:23;;;;;;;3.10;1.55;;;19.00;99.90;;;;;;4994193;28;20169;-82
2022/10/04 14:05:52;;;;;;;5.80;2.42;;;19.10;99.90;;;;;;4994003;28;20220;-80
2022/10/04 14:08:37;;;;;;;1.75;1.60;;;19.10;99.90;;;;;;4993675;28;20197;-89